Time;durP1;ratioP1;P1;durP2;ratioP2;P2;SDS_P1;SDS_P2;PMS_P1;PMS_P2;Temp;Humidity;BMP_temperature;BMP_pressure;BME280_temperature;BME280_humidity;BME280_pressure;Samples;Min_cycle;Max_cycle;Signal;HPM_P1;HPM_P2
2022/10/05 00:00:44;;;;;;;;;11.33;11.00;;;;;14.17;90.93;101556.13;5080137;28;45390;-77
2022/10/05 00:03:10;;;;;;;;;12.00;12.00;;;;;13.96;90.92;101528.19;5082001;28;45377;-77
2022/10/05 00:05:36;;;;;;;;;10.67;10.33;;;;;14.14;91.04;101559.13;5081382;28;45343;-77
2022/10/05 00:08:11;;;;;;;;;11.00;11.00;;;;;14.16;91.18;101559.81;5088877;27;46843;-77
2022/10/05 00:10:40;;;;;;;;;9.00;9.00;;;;;14.10;90.81;101541.81;5063165;28;45448;-77
2022/10/05 00:13:11;;;;;;;;;12.33;12.00;;;;;14.07;91.29;101537.63;5081721;28;45267;-77
2022/10/05 00:15:36;;;;;;;;;10.00;9.67;;;;;14.07;91.02;101550.19;5081440;28;45385;-77
2022/10/05 00:18:11;;;;;;;;;8.33;8.33;;;;;14.03;91.10;101538.19;5081332;28;45389;-77
2022/10/05 00:20:40;;;;;;;;;10.67;10.67;;;;;14.04;91.30;101543.34;5063096;28;45829;-77
2022/10/05 00:23:15;;;;;;;;;6.67;6.67;;;;;13.99;90.89;101527.84;5063082;28;45765;-77
2022/10/05 00:25:40;;;;;;;;;14.33;13.33;;;;;13.97;91.23;101534.34;5081014;28;45825;-77
2022/10/05 00:28:16;;;;;;;;;9.00;9.00;;;;;13.97;91.23;101518.31;5080780;28;45311;-77
2022/10/05 00:30:41;;;;;;;;;9.00;9.00;;;;;13.88;91.63;101514.88;5081429;28;45364;-77
2022/10/05 00:33:06;;;;;;;;;11.00;11.00;;;;;13.96;91.69;101522.84;5081393;28;45260;-76
2022/10/05 00:35:34;;;;;;;;;12.33;12.00;;;;;13.98;91.75;101520.81;5081426;28;45409;-77
2022/10/05 00:37:59;;;;;;;;;14.33;13.67;;;;;13.94;91.54;101502.63;5081238;28;46368;-78
2022/10/05 00:40:27;;;;;;;;;11.00;11.00;;;;;14.01;91.53;101512.44;5080674;28;45584;-78
2022/10/05 00:43:13;;;;;;;;;12.00;12.00;;;;;13.92;91.40;101494.78;5062869;28;45374;-77
2022/10/05 00:46:07;;;;;;;;;18.00;14.33;;;;;13.95;91.29;101504.31;5081026;28;45362;-77
2022/10/05 00:48:52;;;;;;;;;13.00;11.67;;;;;13.94;91.18;101511.50;5075108;28;45620;-77
2022/10/05 00:51:26;;;;;;;;;13.00;13.00;;;;;13.86;91.25;101501.69;5081021;28;45371;-77
2022/10/05 00:54:27;;;;;;;;;9.67;9.67;;;;;13.94;91.33;101511.50;5079655;28;45292;-77
2022/10/05 00:57:16;;;;;;;;;13.67;12.33;;;;;13.91;91.29;101514.53;5080792;28;45375;-77
2022/10/05 00:59:50;;;;;;;;;10.67;10.00;;;;;13.87;91.25;101518.56;5080482;28;45558;-77
2022/10/05 01:02:42;;;;;;;;;11.00;11.00;;;;;13.83;91.28;101509.25;5080610;28;45415;-77
2022/10/05 01:05:38;;;;;;;;;11.00;11.00;;;;;13.75;91.18;101494.94;5080802;28;45251;-77
2022/10/05 01:08:24;;;;;;;;;14.00;14.00;;;;;13.81;91.31;101506.75;5069404;28;46850;-77
2022/10/05 01:11:07;;;;;;;;;13.33;13.33;;;;;13.79;90.90;101506.09;5080498;28;45379;-77
2022/10/05 01:13:35;;;;;;;;;12.00;12.00;;;;;13.76;91.32;101512.63;5080570;28;45344;-77
2022/10/05 01:16:32;;;;;;;;;15.00;13.67;;;;;13.74;91.41;101509.28;5062390;28;45643;-77
2022/10/05 01:19:03;;;;;;;;;13.33;13.33;;;;;13.76;91.50;101509.09;5062312;28;46007;-77
2022/10/05 01:21:43;;;;;;;;;14.67;13.00;;;;;13.66;91.62;101497.81;5079586;28;45446;-77
2022/10/05 01:24:27;;;;;;;;;13.33;12.00;;;;;13.68;91.41;101509.97;5061929;28;45483;-78
2022/10/05 01:27:15;;;;;;;;;11.00;11.00;;;;;13.67;91.04;101499.47;5062161;28;45366;-77
2022/10/05 01:29:52;;;;;;;;;11.67;11.67;;;;;13.66;91.28;101511.16;5079878;28;45332;-77
2022/10/05 01:32:24;;;;;;;;;13.00;12.00;;;;;13.62;91.40;101500.03;5079124;28;46169;-77
2022/10/05 01:34:58;;;;;;;;;12.33;12.33;;;;;13.56;91.39;101495.38;5061855;28;45354;-77
2022/10/05 01:37:33;;;;;;;;;14.67;13.67;;;;;13.60;91.76;101496.69;5080565;28;45550;-77
2022/10/05 01:40:30;;;;;;;;;11.00;11.00;;;;;13.58;91.48;101493.34;5061596;28;46336;-77
2022/10/05 01:43:08;;;;;;;;;14.00;14.00;;;;;13.48;91.51;101482.88;5079982;28;46813;-77
2022/10/05 01:46:09;;;;;;;;;14.00;14.00;;;;;13.52;91.61;101488.75;5080049;28;45215;-77
2022/10/05 01:48:38;;;;;;;;;15.33;14.67;;;;;13.57;91.71;101502.38;5078787;28;45318;-77
2022/10/05 01:51:10;;;;;;;;;14.00;14.00;;;;;13.56;91.79;101493.53;5061547;28;45996;-77
2022/10/05 01:53:54;;;;;;;;;15.33;14.33;;;;;13.69;92.12;101508.16;5079868;28;45426;-77
2022/10/05 01:56:45;;;;;;;;;13.67;12.67;;;;;13.73;92.38;101506.78;5061583;28;45751;-77
2022/10/05 01:59:32;;;;;;;;;14.00;14.00;;;;;13.78;92.53;101501.75;5061534;28;45407;-77
2022/10/05 02:02:02;;;;;;;;;12.00;12.00;;;;;13.78;92.42;101490.22;5079801;28;45292;-77
2022/10/05 02:04:45;;;;;;;;;13.67;11.67;;;;;13.80;92.38;101489.03;5061148;28;46954;-77
2022/10/05 02:07:20;;;;;;;;;10.67;10.67;;;;;13.86;93.21;101491.00;5079762;28;45323;-77
2022/10/05 02:09:53;;;;;;;;;13.00;11.67;;;;;13.89;93.06;101490.66;5062535;28;45497;-77
2022/10/05 02:12:24;;;;;;;;;9.33;9.00;;;;;13.85;92.86;101476.00;5079663;28;45475;-77
2022/10/05 02:14:57;;;;;;;;;15.67;15.67;;;;;13.98;92.76;101491.41;5079366;28;46830;-77
2022/10/05 02:17:39;;;;;;;;;9.00;9.00;;;;;14.01;92.50;101483.03;5079792;28;45385;-77
2022/10/05 02:20:09;;;;;;;;;11.67;11.67;;;;;14.09;92.90;101486.66;5078185;28;45347;-77
2022/10/05 02:22:39;;;;;;;;;10.00;9.00;;;;;14.09;92.59;101482.16;5079567;28;45498;-77
2022/10/05 02:25:16;;;;;;;;;17.00;14.33;;;;;14.10;92.23;101473.13;5079079;28;46386;-77
2022/10/05 02:28:00;;;;;;;;;11.00;10.67;;;;;14.16;92.53;101479.59;5079597;28;45350;-77
2022/10/05 02:30:29;;;;;;;;;11.67;11.67;;;;;14.20;91.98;101469.38;5066381;28;45293;-77
2022/10/05 02:33:00;;;;;;;;;11.67;10.67;;;;;14.27;92.21;101471.16;5060606;28;45958;-77
2022/10/05 02:35:25;;;;;;;;;11.00;11.00;;;;;14.27;92.04;101475.66;5077128;28;47111;-77
2022/10/05 02:38:13;;;;;;;;;12.33;11.33;;;;;14.33;92.11;101474.94;5061015;28;45393;-77
2022/10/05 02:41:13;;;;;;;;;9.00;9.00;;;;;14.29;91.76;101454.09;5079628;28;45350;-77
2022/10/05 02:43:47;;;;;;;;;13.00;12.00;;;;;14.38;92.13;101448.50;5078921;28;45653;-77
2022/10/05 02:46:42;;;;;;;;;15.00;14.67;;;;;14.38;91.70;101453.00;5079315;28;45358;-77
2022/10/05 02:49:22;;;;;;;;;14.00;13.00;;;;;14.36;91.95;101441.63;5060988;28;45379;-77
2022/10/05 02:52:06;;;;;;;;;13.67;13.67;;;;;14.33;91.59;101436.66;5062187;28;45342;-77
2022/10/05 02:54:57;;;;;;;;;15.67;14.00;;;;;14.33;91.76;101436.66;5060902;28;47147;-77
2022/10/05 02:57:41;;;;;;;;;15.00;14.67;;;;;14.36;91.88;101444.31;5079032;28;45671;-77
2022/10/05 03:00:13;;;;;;;;;14.33;12.67;;;;;14.40;91.86;101442.97;5078876;28;45324;-76
2022/10/05 03:03:00;;;;;;;;;12.00;12.00;;;;;14.42;91.97;101446.25;5079300;28;45381;-77
2022/10/05 03:05:32;;;;;;;;;14.33;12.67;;;;;14.43;91.92;101447.09;5078683;28;45763;-76
2022/10/05 03:08:10;;;;;;;;;14.33;14.00;;;;;14.44;91.87;101446.94;5087312;27;46782;-77
2022/10/05 03:10:47;;;;;;;;;14.00;13.33;;;;;14.40;91.54;101434.94;5060576;28;46316;-77
2022/10/05 03:13:40;;;;;;;;;15.00;15.00;;;;;14.36;91.66;101428.28;5077614;28;45344;-77
2022/10/05 03:16:21;;;;;;;;;14.00;14.00;;;;;14.35;92.07;101421.28;5078713;28;45703;-77
2022/10/05 03:19:17;;;;;;;;;12.33;12.33;;;;;14.45;92.08;101431.69;5060552;28;47364;-77
2022/10/05 03:22:03;;;;;;;;;12.67;12.00;;;;;14.46;92.17;101434.19;5078764;28;45281;-76
2022/10/05 03:24:50;;;;;;;;;14.00;14.00;;;;;14.45;92.02;101431.69;5078678;28;45519;-77
2022/10/05 03:27:48;;;;;;;;;14.00;13.33;;;;;14.48;92.17;101429.50;5060455;28;45952;-75
2022/10/05 03:30:25;;;;;;;;;15.00;14.00;;;;;14.45;91.88;101421.84;5059691;28;47561;-76
2022/10/05 03:33:11;;;;;;;;;14.00;12.67;;;;;14.46;92.15;101433.38;5060671;28;45379;-77
2022/10/05 03:35:57;;;;;;;;;13.33;13.33;;;;;14.40;92.28;101410.88;5079025;28;45458;-76
2022/10/05 03:38:33;;;;;;;;;14.67;14.67;;;;;14.42;92.09;101413.38;5078644;28;45231;-77
2022/10/05 03:41:25;;;;;;;;;13.00;13.00;;;;;14.48;92.16;101415.28;5078180;28;48365;-76
2022/10/05 03:44:18;;;;;;;;;13.67;13.00;;;;;14.46;92.27;101412.78;5078310;28;45440;-76
2022/10/05 03:47:03;;;;;;;;;19.00;16.67;;;;;14.44;92.10;101412.16;5063497;28;45337;-76
2022/10/05 03:49:38;;;;;;;;;18.67;15.33;;;;;14.47;92.42;101408.28;5063704;28;47323;-77
2022/10/05 03:52:38;;;;;;;;;14.00;14.00;;;;;14.46;92.42;101410.13;5081651;28;46440;-76
2022/10/05 03:55:03;;;;;;;;;15.00;15.00;;;;;14.47;92.45;101405.59;5081833;28;45235;-77
2022/10/05 03:57:35;;;;;;;;;15.00;14.67;;;;;14.44;92.12;101404.13;5082134;28;45564;-77
2022/10/05 04:00:14;;;;;;;;;15.33;14.00;;;;;14.42;92.23;101402.66;5081966;28;45259;-76
2022/10/05 04:02:58;;;;;;;;;15.67;15.33;;;;;14.37;91.89;101401.34;5063200;28;48219;-77
2022/10/05 04:05:28;;;;;;;;;22.00;16.00;;;;;14.33;92.01;101402.75;5081576;28;45228;-77
2022/10/05 04:08:19;;;;;;;;;13.33;13.33;;;;;14.25;92.06;101398.31;5064173;28;45410;-76
2022/10/05 04:10:50;;;;;;;;;9.00;9.00;;;;;14.17;91.83;101389.53;5063268;28;46208;-77
2022/10/05 04:13:32;;;;;;;;;14.33;14.00;;;;;14.09;92.23;101385.09;5081487;28;46362;-76
2022/10/05 04:16:12;;;;;;;;;13.67;13.67;;;;;14.07;92.18;101390.63;5081549;28;45433;-77
2022/10/05 04:18:44;;;;;;;;;13.00;13.00;;;;;14.08;92.11;101405.66;5069436;28;45332;-77
2022/10/05 04:21:19;;;;;;;;;16.00;15.67;;;;;13.95;92.36;101376.06;5081188;28;45541;-77
2022/10/05 04:23:54;;;;;;;;;13.00;13.00;;;;;13.99;92.29;101396.91;5063043;28;47434;-77
2022/10/05 04:26:30;;;;;;;;;13.00;13.00;;;;;13.95;92.34;101384.88;5081307;28;45313;-77
2022/10/05 04:29:15;;;;;;;;;13.00;12.00;;;;;13.92;92.37;101379.09;5079908;28;45493;-77
2022/10/05 04:32:13;;;;;;;;;15.33;14.33;;;;;13.80;92.67;101374.16;5081278;28;45924;-77
2022/10/05 04:34:52;;;;;;;;;12.67;11.67;;;;;13.79;92.64;101382.34;5062864;28;47326;-76
2022/10/05 04:37:24;;;;;;;;;11.67;11.67;;;;;13.71;92.91;101375.25;5081457;28;45472;-77
2022/10/05 04:40:11;;;;;;;;;13.67;13.00;;;;;13.67;93.26;101373.94;5080970;28;45323;-77
2022/10/05 04:42:42;;;;;;;;;9.00;9.00;;;;;13.58;93.77;101374.00;5064657;28;45344;-78
2022/10/05 04:45:18;;;;;;;;;13.00;11.00;;;;;13.66;93.49;101385.63;5080957;28;46388;-77
2022/10/05 04:47:53;;;;;;;;;11.67;11.67;;;;;13.65;93.74;101383.97;5062911;28;45262;-77
2022/10/05 04:50:35;;;;;;;;;10.67;10.67;;;;;13.59;93.78;101382.88;5080857;28;45466;-77
2022/10/05 04:53:03;;;;;;;;;12.33;12.33;;;;;13.61;93.80;101387.00;5081032;28;45302;-77
2022/10/05 04:55:44;;;;;;;;;13.00;12.00;;;;;13.57;93.94;101379.53;5080527;28;45806;-77
2022/10/05 04:58:15;;;;;;;;;13.33;13.33;;;;;13.57;94.25;101379.53;5061900;28;45408;-77
2022/10/05 05:01:03;;;;;;;;;15.00;14.00;;;;;13.55;94.19;101381.53;5079388;28;45369;-77
2022/10/05 05:03:56;;;;;;;;;17.00;17.00;;;;;13.57;94.42;101375.03;5080605;28;45377;-77
2022/10/05 05:06:42;;;;;;;;;15.67;15.67;;;;;13.55;94.40;101370.84;5069319;28;46831;-78
2022/10/05 05:09:22;;;;;;;;;14.33;13.67;;;;;13.45;94.62;101361.22;5074095;28;45385;-77
2022/10/05 05:11:55;;;;;;;;;12.67;12.33;;;;;13.44;94.96;101366.75;5049938;28;45342;-77
2022/10/05 05:14:26;;;;;;;;;13.33;12.00;;;;;13.50;94.77;101377.56;5062232;28;46074;-77
2022/10/05 05:17:12;;;;;;;;;12.33;12.00;;;;;13.49;94.94;101378.59;5062230;28;47910;-77
2022/10/05 05:20:17;;;;;;;;;16.00;14.67;;;;;13.41;94.43;101361.75;5080143;28;45465;-76
2022/10/05 05:23:10;;;;;;;;;13.00;13.00;;;;;13.43;94.52;101373.91;5018042;28;45345;-76
2022/10/05 05:26:11;;;;;;;;;13.67;13.67;;;;;13.44;94.49;101372.91;5059075;28;46545;-76
2022/10/05 05:29:12;;;;;;;;;17.33;17.00;;;;;13.43;94.42;101370.41;5055904;28;45631;-77
2022/10/05 05:31:40;;;;;;;;;16.00;16.00;;;;;13.40;94.05;101363.59;5011905;28;46415;-76
2022/10/05 05:34:32;;;;;;;;;19.33;19.33;;;;;13.38;94.40;101361.09;5059940;28;45477;-77
2022/10/05 05:37:13;;;;;;;;;14.00;13.67;;;;;13.34;94.48;101361.63;5054800;28;45583;-76
2022/10/05 05:39:45;;;;;;;;;20.00;19.33;;;;;13.25;94.17;101345.69;5059829;28;46634;-74
2022/10/05 05:42:16;;;;;;;;;20.67;20.67;;;;;13.33;94.02;101359.97;5041654;28;45395;-75
2022/10/05 05:44:50;;;;;;;;;16.00;16.00;;;;;13.24;94.30;101356.53;5041591;28;45511;-75
2022/10/05 05:47:25;;;;;;;;;20.33;20.33;;;;;13.31;94.31;101360.16;5058180;28;46044;-76
2022/10/05 05:50:09;;;;;;;;;18.33;17.00;;;;;13.26;94.53;101354.53;5041582;28;47953;-76
2022/10/05 05:52:42;;;;;;;;;13.33;13.00;;;;;13.25;94.66;101352.84;5059782;28;45265;-75
2022/10/05 05:55:26;;;;;;;;;16.33;12.67;;;;;13.18;94.59;101333.22;5041669;28;45370;-76
2022/10/05 05:58:01;;;;;;;;;17.00;16.33;;;;;13.22;94.48;101359.38;5058081;28;45372;-77
2022/10/05 06:01:00;;;;;;;;;17.00;16.33;;;;;13.23;94.69;101355.69;5071500;28;45675;-77
2022/10/05 06:03:31;;;;;;;;;12.00;11.67;;;;;13.24;95.11;101360.03;5056318;28;45471;-76
2022/10/05 06:06:01;;;;;;;;;13.00;13.00;;;;;13.24;95.29;101348.53;5059638;28;45332;-75
2022/10/05 06:08:26;;;;;;;;;11.33;11.33;;;;;13.26;95.75;101362.53;5053201;28;46583;-76
2022/10/05 06:10:57;;;;;;;;;15.33;14.00;;;;;13.23;95.57;101347.69;5041288;28;47478;-76
2022/10/05 06:13:28;;;;;;;;;12.33;12.33;;;;;13.27;96.22;101350.84;5058217;28;47460;-76
2022/10/05 06:16:14;;;;;;;;;14.33;13.33;;;;;13.23;95.88;101342.34;5058131;28;45493;-76
2022/10/05 06:18:44;;;;;;;;;11.67;11.67;;;;;13.31;96.10;101353.97;5046092;28;45332;-76
2022/10/05 06:21:24;;;;;;;;;14.00;14.00;;;;;13.29;96.06;101353.34;5059325;28;45700;-78
2022/10/05 06:23:49;;;;;;;;;14.00;14.00;;;;;13.32;96.31;101358.31;5059303;28;45485;-79
2022/10/05 06:26:52;;;;;;;;;13.33;12.67;;;;;13.34;96.31;101359.78;5059352;28;45357;-78
2022/10/05 06:29:24;;;;;;;;;9.67;9.00;;;;;13.28;96.67;101339.16;5041327;28;45912;-81
2022/10/05 06:32:09;;;;;;;;;10.00;10.00;;;;;13.33;96.96;101343.97;5058955;28;46403;-80
2022/10/05 06:34:55;;;;;;;;;13.00;11.33;;;;;13.43;96.75;101351.72;5058279;28;45391;-79
2022/10/05 06:38:03;;;;;;;;;15.33;14.33;;;;;13.39;96.91;101340.59;5055639;28;45391;-78
2022/10/05 06:40:46;;;;;;;;;15.00;14.00;;;;;13.48;97.35;101360.88;5018017;28;45472;-79
2022/10/05 06:43:24;;;;;;;;;11.67;11.33;;;;;13.50;97.18;101358.88;5040943;28;47279;-79
2022/10/05 06:46:28;;;;;;;;;14.00;13.67;;;;;13.55;97.13;101357.50;5058244;28;45357;-79
2022/10/05 06:49:20;;;;;;;;;12.67;12.00;;;;;13.59;97.42;101350.81;4996816;28;45369;-80
2022/10/05 06:52:05;;;;;;;;;12.33;12.33;;;;;13.62;97.59;101358.47;5040623;28;47014;-78
2022/10/05 06:54:48;;;;;;;;;17.00;16.00;;;;;13.65;97.55;101347.44;5040431;28;47245;-78
2022/10/05 06:57:32;;;;;;;;;15.33;15.33;;;;;13.68;97.69;101355.06;5058913;28;45295;-80
2022/10/05 07:00:06;;;;;;;;;16.67;14.00;;;;;13.73;97.50;101363.38;5058966;28;45352;-80
2022/10/05 07:03:02;;;;;;;;;14.00;13.33;;;;;13.68;97.89;101340.88;5058583;28;45719;-79
2022/10/05 07:05:46;;;;;;;;;11.33;11.33;;;;;13.75;97.67;101344.50;5057142;28;48525;-80
2022/10/05 07:08:27;;;;;;;;;16.00;15.67;;;;;13.78;97.60;101360.16;5049728;28;45232;-79
2022/10/05 07:11:02;;;;;;;;;11.67;11.67;;;;;13.85;98.14;101355.75;5034703;28;45312;-76
2022/10/05 07:13:58;;;;;;;;;11.33;11.33;;;;;13.89;98.40;101356.25;5058580;28;45360;-78
2022/10/05 07:16:27;;;;;;;;;13.00;12.00;;;;;13.95;98.37;101362.69;5040301;28;46344;-80
2022/10/05 07:18:58;;;;;;;;;13.00;12.00;;;;;14.00;98.67;101354.94;5046903;28;45366;-79
2022/10/05 07:21:38;;;;;;;;;10.00;10.00;;;;;13.99;98.54;101345.28;5055777;28;45513;-78
2022/10/05 07:24:22;;;;;;;;;15.00;14.67;;;;;14.10;98.58;101357.38;5047984;28;46599;-77
2022/10/05 07:26:59;;;;;;;;;16.33;16.00;;;;;14.14;98.83;101359.50;5082232;28;45311;-82
2022/10/05 07:29:36;;;;;;;;;13.67;12.67;;;;;14.12;98.69;101348.16;5061468;28;45506;-82
2022/10/05 07:32:11;;;;;;;;;14.33;14.33;;;;;14.19;98.57;101356.25;5079929;28;45343;-80
2022/10/05 07:34:56;;;;;;;;;16.33;16.00;;;;;14.24;98.89;101350.34;5082091;28;45378;-80
2022/10/05 07:40:23;;;;;;;;;15.00;15.00;;;;;14.37;99.22;101349.72;5081929;28;45351;-79
2022/10/05 07:43:20;;;;;;;;;12.33;12.33;;;;;14.47;99.18;101360.13;5063805;28;45338;-80
2022/10/05 07:45:46;;;;;;;;;16.00;16.00;;;;;14.53;99.13;101362.09;5063525;28;45650;-81
2022/10/05 07:48:11;;;;;;;;;15.00;15.00;;;;;14.59;99.23;101357.81;5063565;28;47038;-76
2022/10/05 07:50:58;;;;;;;;;14.00;13.00;;;;;14.54;99.41;101345.00;5063734;28;45735;-76
2022/10/05 07:53:37;;;;;;;;;16.00;15.33;;;;;14.63;99.11;101348.41;5060939;27;45448;-80
2022/10/05 07:56:20;;;;;;;;;14.33;14.00;;;;;14.70;99.31;101348.50;5082611;28;45339;-82
2022/10/05 07:58:56;;;;;;;;;11.33;11.33;;;;;14.74;98.85;101347.09;5069056;28;45445;-81
2022/10/05 08:01:28;;;;;;;;;12.67;12.67;;;;;14.83;99.06;101358.56;5060185;28;45439;-83
2022/10/05 08:04:13;;;;;;;;;13.67;12.67;;;;;14.90;98.68;101375.53;5072333;28;45275;-82
2022/10/05 08:06:44;;;;;;;;;14.33;13.67;;;;;14.92;98.72;101376.19;5083455;27;45401;-83
2022/10/05 08:09:31;;;;;;;;;13.67;13.67;;;;;14.99;98.98;101366.38;5092888;27;46514;-82
2022/10/05 08:12:06;;;;;;;;;13.67;12.00;;;;;15.06;98.58;101373.66;5069078;27;45336;-83
2022/10/05 08:15:05;;;;;;;;;12.00;11.00;;;;;15.08;98.87;101368.94;5082941;27;45471;-82
2022/10/05 08:17:44;;;;;;;;;14.00;13.33;;;;;15.12;98.73;101372.91;5063149;28;47001;-83
2022/10/05 08:20:21;;;;;;;;;12.00;11.00;;;;;15.09;98.60;101358.03;5081796;28;45656;-82
2022/10/05 08:22:55;;;;;;;;;11.33;11.33;;;;;15.13;98.62;101353.97;5067280;28;45405;-80
2022/10/05 08:25:32;;;;;;;;;14.00;12.67;;;;;15.25;98.84;101362.34;5060849;28;45461;-82
2022/10/05 08:28:07;;;;;;;;;11.33;10.67;;;;;15.32;98.37;101367.75;5077596;28;46279;-80
2022/10/05 08:30:53;;;;;;;;;10.33;9.00;;;;;15.32;98.16;101359.72;5060200;28;48005;-81
2022/10/05 08:33:22;;;;;;;;;12.00;12.00;;;;;15.42;98.31;101363.94;5076561;28;45549;-81
2022/10/05 08:36:04;;;;;;;;;10.67;9.67;;;;;15.43;98.19;101354.88;5060284;28;45544;-82
2022/10/05 08:38:34;;;;;;;;;9.00;8.00;;;;;15.38;97.76;101337.53;5078940;28;45355;-81
2022/10/05 08:41:26;;;;;;;;;9.33;8.67;;;;;15.64;97.76;101384.34;5078629;28;45533;-83
2022/10/05 08:44:32;;;;;;;;;10.00;10.00;;;;;15.49;97.45;101360.28;5060662;28;46080;-82
2022/10/05 08:47:28;;;;;;;;;9.33;9.33;;;;;15.77;97.25;101386.28;5061635;28;45318;-82
2022/10/05 08:50:18;;;;;;;;;10.00;10.00;;;;;15.86;96.83;101386.16;5080972;28;45468;-82
2022/10/05 08:53:39;;;;;;;;;9.00;9.00;;;;;15.88;96.75;101365.34;5062472;28;47429;-80
2022/10/05 08:56:13;;;;;;;;;8.67;7.33;;;;;16.04;96.82;101383.00;5080872;28;45165;-76
2022/10/05 08:58:48;;;;;;;;;10.33;8.33;;;;;16.22;96.19;101385.22;5060537;28;45445;-80
2022/10/05 09:01:22;;;;;;;;;8.33;8.00;;;;;16.30;95.62;101394.13;5080436;28;45273;-78
2022/10/05 09:04:06;;;;;;;;;9.67;9.33;;;;;16.38;94.84;101389.41;5080218;28;45410;-80
2022/10/05 09:06:49;;;;;;;;;8.67;8.67;;;;;16.41;94.25;101382.84;5061971;28;45341;-79
2022/10/05 09:09:20;;;;;;;;;11.00;10.00;;;;;16.58;94.32;101401.31;5080502;28;45472;-80
2022/10/05 09:12:08;;;;;;;;;9.00;9.00;;;;;16.63;94.11;101383.59;5080685;28;45305;-81
2022/10/05 09:15:14;;;;;;;;;10.00;10.00;;;;;16.85;93.68;101394.19;5062063;28;48094;-79
2022/10/05 09:17:45;;;;;;;;;9.00;9.00;;;;;16.99;93.32;101397.78;5052690;28;45456;-80
2022/10/05 09:20:16;;;;;;;;;9.00;9.00;;;;;17.11;92.78;101395.38;5066787;28;45500;-79
2022/10/05 09:22:58;;;;;;;;;10.33;10.33;;;;;17.25;92.35;101403.47;5080280;28;45281;-79
2022/10/05 09:26:18;;;;;;;;;10.00;10.00;;;;;17.21;92.06;101386.91;5067524;28;45390;-77
2022/10/05 09:28:56;;;;;;;;;9.33;9.33;;;;;17.34;91.69;101404.09;4997627;28;45290;-76
2022/10/05 09:32:10;;;;;;;;;10.00;10.00;;;;;17.36;90.58;101404.72;5056555;28;45682;-77
2022/10/05 09:35:17;;;;;;;;;10.33;10.00;;;;;17.15;91.11;101372.44;5079512;28;45337;-75
2022/10/05 09:38:23;;;;;;;;;9.33;9.33;;;;;17.36;90.66;101392.09;5071154;28;46533;-80
2022/10/05 09:40:52;;;;;;;;;10.00;9.00;;;;;17.54;90.81;101407.63;5059716;28;45322;-80
2022/10/05 09:43:52;;;;;;;;;9.33;8.33;;;;;17.64;91.02;101404.56;5079535;28;45349;-75
2022/10/05 09:47:03;;;;;;;;;12.00;12.00;;;;;17.70;90.39;101410.97;5059682;28;45471;-77
2022/10/05 09:49:50;;;;;;;;;10.67;9.33;;;;;17.75;90.35;101403.09;5038208;28;45639;-79
2022/10/05 09:52:38;;;;;;;;;11.00;11.00;;;;;17.78;90.11;101401.88;5079951;28;45351;-80
2022/10/05 09:55:44;;;;;;;;;11.67;11.67;;;;;17.85;89.87;101404.56;5048919;28;45468;-80
2022/10/05 09:58:32;;;;;;;;;8.00;8.00;;;;;17.89;89.80;101397.72;5061287;28;45438;-79
2022/10/05 10:01:00;;;;;;;;;11.33;10.67;;;;;17.94;89.51;101397.94;5079849;28;47009;-78
2022/10/05 10:03:44;;;;;;;;;11.33;11.00;;;;;18.01;89.05;101387.16;5079775;28;45467;-75
2022/10/05 10:06:46;;;;;;;;;8.00;8.00;;;;;18.06;88.33;101382.00;5080051;28;45370;-74
2022/10/05 10:09:38;;;;;;;;;10.67;10.67;;;;;18.01;88.46;101357.59;5072056;28;47640;-77
2022/10/05 10:12:37;;;;;;;;;13.00;12.33;;;;;18.20;88.18;101366.72;5061550;28;47299;-85
2022/10/05 10:15:08;;;;;;;;;10.67;10.00;;;;;18.35;88.14;101381.78;5065777;28;45277;-79
2022/10/05 10:17:52;;;;;;;;;10.00;10.00;;;;;18.42;87.68;101375.34;5079838;28;45401;-81
2022/10/05 10:20:37;;;;;;;;;10.33;9.67;;;;;18.45;87.54;101366.03;5045625;28;46081;-79
2022/10/05 10:23:22;;;;;;;;;12.67;10.00;;;;;18.45;86.95;101359.81;5059271;28;45351;-77
2022/10/05 10:25:53;;;;;;;;;10.33;9.00;;;;;18.55;86.19;101376.31;5059125;28;45508;-79
2022/10/05 10:28:51;;;;;;;;;10.33;10.00;;;;;18.55;86.25;101373.63;5059222;28;45337;-76
2022/10/05 10:31:16;;;;;;;;;9.67;9.67;;;;;18.55;85.68;101373.63;5022555;28;45744;-82
2022/10/05 10:34:16;;;;;;;;;10.00;10.00;;;;;18.54;84.86;101383.59;5042319;28;48401;-81
2022/10/05 10:37:06;;;;;;;;;9.33;9.00;;;;;18.51;83.88;101375.09;5043818;28;45303;-78
2022/10/05 10:40:19;;;;;;;;;8.00;8.00;;;;;18.42;82.38;101366.44;5059179;28;45353;-74
2022/10/05 10:43:20;;;;;;;;;6.33;5.33;;;;;18.47;82.45;101371.19;5038360;28;46189;-76
2022/10/05 10:46:07;;;;;;;;;7.67;6.67;;;;;18.55;81.88;101362.88;5028254;28;46610;-79
2022/10/05 10:48:54;;;;;;;;;7.00;7.00;;;;;18.67;81.78;101374.63;5040584;28;45466;-78
2022/10/05 10:51:38;;;;;;;;;7.67;7.67;;;;;18.80;82.18;101354.91;5057188;28;45915;-76
2022/10/05 10:54:22;;;;;;;;;9.00;8.67;;;;;18.91;80.88;101361.47;5057794;28;45268;-76
2022/10/05 10:56:59;;;;;;;;;10.00;8.33;;;;;18.97;80.03;101359.78;5057617;28;45494;-78
2022/10/05 11:00:04;;;;;;;;;8.33;7.67;;;;;19.10;80.40;101358.94;5045349;28;45335;-78
2022/10/05 11:02:51;;;;;;;;;7.00;6.67;;;;;19.23;80.13;101357.19;5058925;28;45353;-75
2022/10/05 11:05:32;;;;;;;;;7.00;5.67;;;;;19.38;78.78;101356.88;5040682;28;46836;-78
2022/10/05 11:08:21;;;;;;;;;7.33;6.00;;;;;19.51;78.74;101353.25;5067621;28;45427;-78
2022/10/05 11:10:53;;;;;;;;;7.67;5.00;;;;;19.71;77.73;101353.09;5058713;28;45358;-77
2022/10/05 11:14:09;;;;;;;;;7.00;6.33;;;;;19.99;77.73;101343.69;5056725;28;45371;-78
2022/10/05 11:17:05;;;;;;;;;7.67;7.67;;;;;20.29;77.84;101340.28;4993817;28;46397;-76
2022/10/05 11:19:49;;;;;;;;;7.67;5.33;;;;;20.54;76.97;101339.41;5057171;28;46379;-80
2022/10/05 11:22:34;;;;;;;;;6.00;6.00;;;;;20.70;75.38;101347.91;5076883;28;45321;-77
2022/10/05 11:25:15;;;;;;;;;6.00;6.00;;;;;20.70;73.59;101350.59;5077275;28;45868;-78
2022/10/05 11:28:02;;;;;;;;;5.67;5.67;;;;;20.72;74.02;101340.41;5078871;28;45473;-78
2022/10/05 11:30:48;;;;;;;;;3.33;3.33;;;;;20.74;72.91;101335.59;5069084;28;47275;-77
2022/10/05 11:33:25;;;;;;;;;9.00;8.33;;;;;20.68;71.58;101339.19;5065718;28;45355;-77
2022/10/05 11:36:14;;;;;;;;;9.00;8.00;;;;;20.59;72.13;101324.38;5079196;28;45362;-81
2022/10/05 11:39:17;;;;;;;;;8.33;8.33;;;;;20.54;72.12;101322.38;5069776;28;46036;-80
2022/10/05 11:42:07;;;;;;;;;6.00;6.00;;;;;20.49;72.31;101320.34;5055128;28;47592;-80
2022/10/05 11:44:56;;;;;;;;;6.00;6.00;;;;;20.36;72.53;101302.44;5078886;28;45513;-79
2022/10/05 11:47:30;;;;;;;;;5.67;3.00;;;;;20.40;71.91;101322.53;5079641;28;45458;-74
2022/10/05 11:50:10;;;;;;;;;7.00;7.00;;;;;20.46;73.16;101312.69;5078384;28;45374;-78
2022/10/05 11:53:04;;;;;;;;;7.00;7.00;;;;;20.47;72.57;101300.03;5078516;28;46569;-78
2022/10/05 11:55:52;;;;;;;;;7.00;7.00;;;;;20.56;72.59;101294.09;5066565;28;45342;-85
2022/10/05 11:58:27;;;;;;;;;7.00;7.00;;;;;20.63;72.00;101298.56;5055677;28;45338;-74
2022/10/05 12:01:05;;;;;;;;;7.67;7.67;;;;;20.65;72.07;101294.59;5076451;28;46448;-79
2022/10/05 12:03:39;;;;;;;;;6.00;6.00;;;;;20.76;71.67;101298.38;5077660;28;45410;-78
2022/10/05 12:06:20;;;;;;;;;5.33;5.33;;;;;20.77;71.55;101297.31;5078705;28;45547;-75
2022/10/05 12:09:14;;;;;;;;;6.00;6.00;;;;;20.88;71.59;101303.00;5081743;27;45232;-79
2022/10/05 12:11:45;;;;;;;;;8.00;8.00;;;;;20.93;71.68;101297.78;5081117;28;45434;-77
2022/10/05 12:14:29;;;;;;;;;6.00;6.00;;;;;20.97;71.67;101303.53;5080590;28;45392;-76
2022/10/05 12:17:18;;;;;;;;;6.67;6.67;;;;;21.01;70.73;101293.91;5081075;28;45500;-78
2022/10/05 12:19:50;;;;;;;;;8.00;8.00;;;;;21.06;71.26;101294.88;5081222;28;45497;-79
2022/10/05 12:22:36;;;;;;;;;6.67;6.00;;;;;21.18;71.19;101294.06;5080847;28;45393;-75
2022/10/05 12:25:14;;;;;;;;;6.00;6.00;;;;;21.28;70.52;101294.31;5062404;28;47065;-80